Terminal Aerodrome Forecast
Issued by NWS

Home | Current Version | Previous Version | Text Only | Print | Product List | Glossary On
Versions: 1 2 3 4 5 6 7 8 9 10 11 12 13
000
FTUS42 TJSJ 161700
TAFJBQ
TAF
TJBQ 161732Z 1618/1718 03008KT P6SM VCTS SCT025CB BKN035
     FM162200 09007KT P6SM SCT030
     FM171400 08013KT P6SM SCT025
      AMD NOT SKED 1702/1711=

USA.gov is the U.S. government's official web portal to all federal, state and local government web resources and services.